createdAt,value
2023-02-21T00:00:16.394Z,102036.47
2023-02-21T00:03:01.583Z,102033.66
2023-02-21T00:05:47.220Z,102040.13
2023-02-21T00:08:32.480Z,102033.78
2023-02-21T00:11:19.065Z,102032.97
2023-02-21T00:14:04.336Z,102037.59
2023-02-21T00:16:49.547Z,102053.84
2023-02-21T00:19:34.894Z,102041.94
2023-02-21T00:22:20.238Z,102050.06
2023-02-21T00:25:05.802Z,102046.41
2023-02-21T00:27:52.538Z,102052.78
2023-02-21T00:30:39.489Z,102053.66
2023-02-21T00:33:24.977Z,102058.97
2023-02-21T00:36:10.088Z,102047.38
2023-02-21T00:38:56.619Z,102051.03
2023-02-21T00:41:42.143Z,102049.22
2023-02-21T00:44:28.818Z,102044.59
2023-02-21T00:47:14.026Z,102041.19
2023-02-21T00:49:59.383Z,102046.63
2023-02-21T00:52:44.743Z,102036.66
2023-02-21T00:55:30.151Z,102034.81
2023-02-21T00:58:15.446Z,102036.53
2023-02-21T01:01:02.254Z,102032.09
2023-02-21T01:03:47.189Z,102016.06
2023-02-21T01:06:32.609Z,102021.47
2023-02-21T01:09:17.947Z,102016.84
2023-02-21T01:12:03.244Z,102015.97
2023-02-21T01:14:48.689Z,102008.75
2023-02-21T01:17:34.907Z,102010.47
2023-02-21T01:20:20.325Z,102006.03
2023-02-21T01:23:06.343Z,102011.34
2023-02-21T01:25:51.647Z,102007.84
2023-02-21T01:28:37.093Z,102002.44
2023-02-21T01:31:22.369Z,102003.41
2023-02-21T01:34:09.053Z,102005.06
2023-02-21T01:36:54.570Z,102001.59
2023-02-21T01:39:39.936Z,101996.19
2023-02-21T01:42:25.258Z,101990.78
2023-02-21T01:45:57.374Z,101992.41
2023-02-21T01:48:44.999Z,101995.03
2023-02-21T01:51:35.140Z,101991.53
2023-02-21T01:54:21.525Z,101995.97
2023-02-21T01:57:07.574Z,101991.63
2023-02-21T01:59:52.991Z,101992.41
2023-02-21T02:02:45.675Z,101999.56
2023-02-21T02:05:32.143Z,101990.78
2023-02-21T02:08:18.827Z,101989.88
2023-02-21T02:11:05.294Z,101985.38
2023-02-21T02:14:03.116Z,101985.38
2023-02-21T02:16:40.428Z,101993.28
2023-02-21T02:19:33.111Z,101987.88
2023-02-21T02:22:37.836Z,101982.28
2023-02-21T02:25:13.782Z,101978.78
2023-02-21T02:28:01.738Z,101978.78
2023-02-21T02:30:52.437Z,101977.72
2023-02-21T02:34:03.701Z,101975.13
2023-02-21T02:36:41.243Z,101968.66
2023-02-21T02:39:20.062Z,101971.47
2023-02-21T02:41:54.883Z,101967.78
2023-02-21T02:44:29.528Z,101963.34
2023-02-21T02:47:01.787Z,101967.78
2023-02-21T02:49:32.393Z,101966.91
2023-02-21T02:52:06.484Z,101969.53
2023-02-21T02:54:34.387Z,101967.78
2023-02-21T02:57:04.911Z,101972.41
2023-02-21T02:59:34.296Z,101975.97
2023-02-21T03:02:27.428Z,101965.25
2023-02-21T03:05:12.177Z,101964.13
2023-02-21T03:07:51.746Z,101959.69
2023-02-21T03:10:26.144Z,101956.00
2023-02-21T03:13:02.583Z,101961.41
2023-02-21T03:15:38.776Z,101957.94
2023-02-21T03:18:12.901Z,101955.34
2023-02-21T03:20:42.928Z,101953.78
2023-02-21T03:23:14.978Z,101952.91
2023-02-21T03:25:43.908Z,101951.94
2023-02-21T03:28:11.943Z,101955.41
2023-02-21T03:30:42.252Z,101961.03
2023-02-21T03:33:10.160Z,101953.88
2023-02-21T03:35:38.019Z,101953.09
2023-02-21T03:38:05.946Z,101958.44
2023-02-21T03:40:35.309Z,101949.31
2023-02-21T03:43:07.180Z,101959.97
2023-02-21T03:45:35.227Z,101957.38
2023-02-21T03:48:03.814Z,101953.78
2023-02-21T03:50:31.598Z,101961.03
2023-02-21T03:52:59.309Z,101954.72
2023-02-21T03:55:27.060Z,101960.91
2023-02-21T03:57:58.531Z,101959.06
2023-02-21T04:00:26.343Z,101958.22
2023-02-21T04:02:54.085Z,101959.00
2023-02-21T04:05:21.809Z,101959.97
2023-02-21T04:07:49.633Z,101954.66
2023-02-21T04:10:17.702Z,101955.41
2023-02-21T04:12:45.418Z,101951.75
2023-02-21T04:15:14.535Z,101957.16
2023-02-21T04:17:42.298Z,101953.47
2023-02-21T04:20:11.295Z,101957.03
2023-02-21T04:22:40.531Z,101958.78
2023-02-21T04:25:08.871Z,101948.94
2023-02-21T04:27:37.131Z,101947.97
2023-02-21T04:30:05.191Z,101956.97
2023-02-21T04:32:34.406Z,101954.16
2023-02-21T04:35:02.210Z,101948.84
2023-02-21T04:37:29.960Z,101952.41
2023-02-21T04:39:57.799Z,101942.66
2023-02-21T04:42:25.620Z,101936.41
2023-02-21T04:45:00.121Z,101930.09
2023-02-21T04:47:28.253Z,101930.00
2023-02-21T04:49:57.563Z,101928.19
2023-02-21T04:52:25.606Z,101935.34
2023-02-21T04:54:53.481Z,101933.59
2023-02-21T04:57:24.489Z,101929.94
2023-02-21T04:59:57.833Z,101922.78
2023-02-21T05:02:25.608Z,101929.03
2023-02-21T05:04:53.431Z,101939.78
2023-02-21T05:07:22.708Z,101936.19
2023-02-21T05:09:50.686Z,101934.38
2023-02-21T05:12:18.519Z,101932.41
2023-02-21T05:14:46.241Z,101919.84
2023-02-21T05:17:14.030Z,101921.72
2023-02-21T05:19:41.752Z,101924.50
2023-02-21T05:22:09.512Z,101932.53
2023-02-21T05:24:43.468Z,101936.09
2023-02-21T05:27:11.444Z,101935.13
2023-02-21T05:29:39.222Z,101931.66
2023-02-21T05:32:07.294Z,101930.09
2023-02-21T05:34:35.075Z,101932.63
2023-02-21T05:37:02.830Z,101931.56
2023-02-21T05:39:33.612Z,101923.56
2023-02-21T05:42:02.845Z,101914.56
2023-02-21T05:44:30.656Z,101923.56
2023-02-21T05:46:58.401Z,101928.97
2023-02-21T05:49:27.586Z,101927.13
2023-02-21T05:51:55.833Z,101916.19
2023-02-21T05:54:23.676Z,101920.75
2023-02-21T05:56:52.734Z,101925.25
2023-02-21T05:59:22.642Z,101927.13
2023-02-21T06:01:51.850Z,101925.38
2023-02-21T06:04:19.972Z,101927.00
2023-02-21T06:06:47.688Z,101928.66
2023-02-21T06:09:15.445Z,101928.75
2023-02-21T06:11:43.221Z,101921.72
2023-02-21T06:14:17.898Z,101917.06
2023-02-21T06:16:47.455Z,101915.34
2023-02-21T06:19:17.788Z,101925.19
2023-02-21T06:21:46.029Z,101930.69
2023-02-21T06:24:14.260Z,101945.84
2023-02-21T06:26:42.434Z,101937.81
2023-02-21T06:29:11.467Z,101936.88
2023-02-21T06:31:39.407Z,101929.72
2023-02-21T06:34:08.635Z,101935.13
2023-02-21T06:36:36.768Z,101940.53
2023-02-21T06:39:04.781Z,101948.53
2023-02-21T06:41:32.640Z,101952.13
2023-02-21T06:44:01.261Z,101952.03
2023-02-21T06:46:30.886Z,101943.91
2023-02-21T06:48:59.424Z,101947.41
2023-02-21T06:51:30.239Z,101943.81
2023-02-21T06:53:58.970Z,101944.78
2023-02-21T06:56:27.249Z,101944.78
2023-02-21T06:58:55.299Z,101936.69
2023-02-21T07:01:24.020Z,101946.50
2023-02-21T07:03:52.516Z,101944.78
2023-02-21T07:06:20.599Z,101946.63
2023-02-21T07:08:49.939Z,101944.88
2023-02-21T07:11:19.466Z,101947.69
2023-02-21T07:13:50.892Z,101945.75
2023-02-21T07:16:19.257Z,101945.75
2023-02-21T07:18:47.455Z,101953.66
2023-02-21T07:21:16.772Z,101947.28
2023-02-21T07:23:45.039Z,101946.31
2023-02-21T07:26:17.127Z,101953.47
2023-02-21T07:28:46.121Z,101955.22
2023-02-21T07:31:14.532Z,101945.25
2023-02-21T07:33:43.086Z,101947.00
2023-02-21T07:36:11.007Z,101944.28
2023-02-21T07:38:38.802Z,101946.22
2023-02-21T07:41:09.654Z,101960.63
2023-02-21T07:43:39.201Z,101960.63
2023-02-21T07:46:10.978Z,101961.38
2023-02-21T07:48:38.843Z,101955.13
2023-02-21T07:51:08.462Z,101955.91
2023-02-21T07:53:36.595Z,101948.75
2023-02-21T07:56:05.110Z,101955.00
2023-02-21T07:58:37.360Z,101949.72
2023-02-21T08:01:07.733Z,101952.31
2023-02-21T08:03:35.829Z,101956.75
2023-02-21T08:06:03.682Z,101946.91
2023-02-21T08:08:31.452Z,101944.06
2023-02-21T08:10:59.249Z,101952.19
2023-02-21T08:13:27.058Z,101949.41
2023-02-21T08:15:54.866Z,101965.66
2023-02-21T08:18:25.074Z,101959.16
2023-02-21T08:20:53.668Z,101957.31
2023-02-21T08:23:22.421Z,101959.06
2023-02-21T08:25:50.810Z,101961.75
2023-02-21T08:28:19.173Z,101965.31
2023-02-21T08:30:46.958Z,101965.25
2023-02-21T08:33:14.929Z,101960.59
2023-02-21T08:35:44.117Z,101960.59
2023-02-21T08:38:11.898Z,101964.28
2023-02-21T08:40:39.776Z,101966.88
2023-02-21T08:43:07.680Z,101971.22
2023-02-21T08:45:35.444Z,101967.75
2023-02-21T08:48:03.317Z,101965.81
2023-02-21T08:50:31.488Z,101958.56
2023-02-21T08:53:00.679Z,101960.41
2023-02-21T08:55:28.468Z,101958.66
2023-02-21T08:57:56.420Z,101963.13
2023-02-21T09:00:28.434Z,101961.25
2023-02-21T09:02:59.954Z,101957.69
2023-02-21T09:05:29.982Z,101960.41
2023-02-21T09:08:01.274Z,101950.44
2023-02-21T09:10:34.002Z,101953.06
2023-02-21T09:13:01.986Z,101953.94
2023-02-21T09:15:30.056Z,101953.81
2023-02-21T09:17:57.973Z,101944.84
2023-02-21T09:20:27.133Z,101941.25
2023-02-21T09:22:55.082Z,101932.09
2023-02-21T09:25:26.053Z,101942.03
2023-02-21T09:27:55.324Z,101946.47
2023-02-21T09:30:26.244Z,101945.50
2023-02-21T09:32:55.012Z,101940.88
2023-02-21T09:35:23.450Z,101940.78
2023-02-21T09:37:51.263Z,101943.47
2023-02-21T09:40:29.968Z,101946.94
2023-02-21T09:43:01.291Z,101937.84
2023-02-21T09:45:33.308Z,101932.53
2023-02-21T09:48:05.449Z,101928.88
2023-02-21T09:50:41.369Z,101928.88
2023-02-21T09:53:09.774Z,101932.44
2023-02-21T09:55:40.319Z,101935.06
2023-02-21T09:58:14.085Z,101931.34
2023-02-21T10:00:44.094Z,101934.06
2023-02-21T10:03:27.751Z,101933.88
2023-02-21T10:06:03.805Z,101926.59
2023-02-21T10:08:38.767Z,101933.03
2023-02-21T10:11:23.439Z,101925.88
2023-02-21T10:14:03.228Z,101925.94
2023-02-21T10:16:37.016Z,101929.44
2023-02-21T10:19:07.396Z,101928.66
2023-02-21T10:21:38.757Z,101919.56
2023-02-21T10:24:14.072Z,101926.72
2023-02-21T10:26:48.980Z,101925.66
2023-02-21T10:29:24.630Z,101921.13
2023-02-21T10:31:57.702Z,101925.66
2023-02-21T10:34:28.296Z,101924.69
2023-02-21T10:36:57.659Z,101916.66
2023-02-21T10:39:32.143Z,101913.97
2023-02-21T10:42:01.303Z,101913.97
2023-02-21T10:44:35.236Z,101922.81
2023-02-21T10:47:10.063Z,101919.16
2023-02-21T10:49:46.600Z,101914.63
2023-02-21T10:52:17.005Z,101918.97
2023-02-21T10:55:01.936Z,101919.81
2023-02-21T10:57:31.576Z,101913.44
2023-02-21T11:00:10.063Z,101915.06
2023-02-21T11:02:41.255Z,101915.84
2023-02-21T11:05:16.828Z,101911.22
2023-02-21T11:07:58.918Z,101908.56
2023-02-21T11:10:33.535Z,101904.78
2023-02-21T11:13:15.612Z,101909.06
2023-02-21T11:15:45.251Z,101905.56
2023-02-21T11:18:17.431Z,101903.81
2023-02-21T11:20:45.849Z,101901.66
2023-02-21T11:23:22.585Z,101895.22
2023-02-21T11:25:56.404Z,101893.91
2023-02-21T11:28:25.103Z,101895.66
2023-02-21T11:31:14.739Z,101889.16
2023-02-21T11:33:51.542Z,101883.53
2023-02-21T11:36:22.106Z,101885.34
2023-02-21T11:39:04.499Z,101878.97
2023-02-21T11:41:39.162Z,101889.66
2023-02-21T11:44:26.050Z,101884.22
2023-02-21T11:47:02.243Z,101875.03
2023-02-21T11:49:38.556Z,101880.22
2023-02-21T11:52:10.887Z,101875.69
2023-02-21T11:54:40.267Z,101875.44
2023-02-21T11:57:15.867Z,101876.41
2023-02-21T11:59:50.260Z,101870.34
2023-02-21T12:02:42.290Z,101874.91
2023-02-21T12:05:29.587Z,101871.22
2023-02-21T12:08:16.070Z,101870.25
2023-02-21T12:10:51.244Z,101863.88
2023-02-21T12:13:29.575Z,101865.59
2023-02-21T12:16:04.595Z,101867.22
2023-02-21T12:18:50.298Z,101861.72
2023-02-21T12:21:34.721Z,101868.63
2023-02-21T12:24:15.755Z,101857.59
2023-02-21T12:26:52.706Z,101861.28
2023-02-21T12:29:37.920Z,101857.38
2023-02-21T12:32:27.433Z,101855.44
2023-02-21T12:35:16.494Z,101852.72
2023-02-21T12:37:50.819Z,101852.59
2023-02-21T12:40:28.453Z,101845.34
2023-02-21T12:43:24.378Z,101843.63
2023-02-21T12:46:02.371Z,101845.69
2023-02-21T12:48:34.797Z,101846.53
2023-02-21T12:51:08.981Z,101845.69
2023-02-21T12:53:44.260Z,101844.72
2023-02-21T12:56:16.682Z,101844.59
2023-02-21T12:58:49.190Z,101837.22
2023-02-21T13:01:22.060Z,101836.22
2023-02-21T13:03:57.817Z,101837.97
2023-02-21T13:06:33.224Z,101835.06
2023-02-21T13:09:12.396Z,101832.34
2023-02-21T13:11:46.533Z,101834.09
2023-02-21T13:14:19.266Z,101835.78
2023-02-21T13:16:47.267Z,101830.38
2023-02-21T13:19:15.996Z,101836.78
2023-02-21T13:22:00.514Z,101829.63
2023-02-21T13:24:49.659Z,101835.06
2023-02-21T13:27:39.035Z,101824.22
2023-02-21T13:30:15.041Z,101821.28
2023-02-21T13:32:52.554Z,101817.59
2023-02-21T13:35:26.633Z,101819.31
2023-02-21T13:37:56.940Z,101814.03
2023-02-21T13:40:26.915Z,101814.03
2023-02-21T13:43:07.820Z,101816.94
2023-02-21T13:45:35.629Z,101809.78
2023-02-21T13:48:22.490Z,101816.16
2023-02-21T13:50:52.255Z,101810.75
2023-02-21T13:53:24.083Z,101802.84
2023-02-21T13:56:17.218Z,101801.88
2023-02-21T13:58:46.460Z,101798.41
2023-02-21T14:01:25.152Z,101797.66
2023-02-21T14:03:57.612Z,101796.03
2023-02-21T14:06:34.608Z,101789.88
2023-02-21T14:09:12.569Z,101792.56
2023-02-21T14:11:48.170Z,101799.69
2023-02-21T14:14:26.405Z,101788.88
2023-02-21T14:17:00.441Z,101791.81
2023-02-21T14:19:36.573Z,101793.75
2023-02-21T14:22:11.521Z,101792.78
2023-02-21T14:24:44.422Z,101784.44
2023-02-21T14:27:40.056Z,101784.53
2023-02-21T14:30:31.381Z,101787.47
2023-02-21T14:33:17.788Z,101776.75
2023-02-21T14:35:52.626Z,101776.00
2023-02-21T14:38:24.891Z,101770.69
2023-02-21T14:41:06.884Z,101778.81
2023-02-21T14:44:07.099Z,101772.50
2023-02-21T14:47:00.796Z,101779.66
2023-02-21T14:49:57.218Z,101777.94
2023-02-21T14:52:49.497Z,101772.63
2023-02-21T14:56:04.675Z,101767.81
2023-02-21T14:59:00.889Z,101769.66
2023-02-21T15:01:45.056Z,101766.09
2023-02-21T15:04:16.531Z,101767.16
2023-02-21T15:06:54.316Z,101766.03
2023-02-21T15:09:22.825Z,101766.75
2023-02-21T15:11:51.201Z,101768.63
2023-02-21T15:14:25.933Z,101764.81
2023-02-21T15:16:57.514Z,101765.72
2023-02-21T15:19:31.446Z,101766.56
2023-02-21T15:22:18.574Z,101763.31
2023-02-21T15:25:18.143Z,101766.19
2023-02-21T15:28:04.002Z,101769.66
2023-02-21T15:30:37.598Z,101769.66
2023-02-21T15:33:15.119Z,101769.59
2023-02-21T15:35:50.697Z,101770.34
2023-02-21T15:38:24.392Z,101764.81
2023-02-21T15:40:56.737Z,101758.56
2023-02-21T15:43:32.329Z,101768.50
2023-02-21T15:46:05.016Z,101757.91
2023-02-21T15:48:33.122Z,101763.47
2023-02-21T15:51:05.042Z,101759.69
2023-02-21T15:53:33.362Z,101758.19
2023-02-21T15:56:21.821Z,101755.78
2023-02-21T15:59:18.953Z,101762.09
2023-02-21T16:02:08.602Z,101749.53
2023-02-21T16:04:37.995Z,101749.41
2023-02-21T16:07:07.761Z,101739.44
2023-02-21T16:09:39.483Z,101739.53
2023-02-21T16:12:22.745Z,101750.25
2023-02-21T16:14:59.071Z,101746.59
2023-02-21T16:17:32.811Z,101744.63
2023-02-21T16:20:06.107Z,101741.09
2023-02-21T16:22:53.994Z,101750.25
2023-02-21T16:25:25.709Z,101747.91
2023-02-21T16:27:55.225Z,101740.75
2023-02-21T16:30:26.585Z,101736.31
2023-02-21T16:33:01.133Z,101738.16
2023-02-21T16:35:29.669Z,101735.53
2023-02-21T16:37:59.087Z,101730.34
2023-02-21T16:40:29.607Z,101738.47
2023-02-21T16:42:59.020Z,101737.69
2023-02-21T16:45:27.883Z,101736.72
2023-02-21T16:48:01.358Z,101731.31
2023-02-21T16:50:32.290Z,101729.56
2023-02-21T16:53:01.424Z,101731.50
2023-02-21T16:55:30.143Z,101732.53
2023-02-21T16:58:00.733Z,101729.91
2023-02-21T17:00:29.344Z,101734.44
2023-02-21T17:02:58.735Z,101730.00
2023-02-21T17:05:27.173Z,101735.53
2023-02-21T17:07:58.276Z,101728.38
2023-02-21T17:10:26.079Z,101723.16
2023-02-21T17:12:53.939Z,101725.88
2023-02-21T17:15:23.735Z,101722.50
2023-02-21T17:17:53.904Z,101724.47
2023-02-21T17:20:24.366Z,101717.34
2023-02-21T17:22:52.581Z,101722.09
2023-02-21T17:25:22.238Z,101722.09
2023-02-21T17:27:50.617Z,101727.50
2023-02-21T17:30:20.232Z,101728.47
2023-02-21T17:32:51.250Z,101721.44
2023-02-21T17:35:20.709Z,101719.69
2023-02-21T17:37:51.516Z,101719.69
2023-02-21T17:40:21.131Z,101715.25
2023-02-21T17:42:48.995Z,101714.28
2023-02-21T17:45:19.182Z,101723.19
2023-02-21T17:47:47.341Z,101723.19
2023-02-21T17:50:15.648Z,101722.41
2023-02-21T17:52:43.994Z,101721.66
2023-02-21T17:55:19.896Z,101721.66
2023-02-21T17:57:50.798Z,101716.34
2023-02-21T18:00:23.192Z,101716.13
2023-02-21T18:02:51.065Z,101716.13
2023-02-21T18:05:19.642Z,101716.88
2023-02-21T18:07:48.922Z,101723.19
2023-02-21T18:10:20.121Z,101724.03
2023-02-21T18:12:50.770Z,101723.19
2023-02-21T18:15:20.612Z,101722.41
2023-02-21T18:17:48.479Z,101717.97
2023-02-21T18:20:17.278Z,101722.50
2023-02-21T18:22:45.408Z,101722.63
2023-02-21T18:25:15.213Z,101716.34
2023-02-21T18:27:44.454Z,101710.06
2023-02-21T18:30:12.821Z,101716.56
2023-02-21T18:32:40.661Z,101714.81
2023-02-21T18:35:08.773Z,101707.00
2023-02-21T18:37:36.689Z,101711.56
2023-02-21T18:40:06.524Z,101713.31
2023-02-21T18:42:34.368Z,101700.94
2023-02-21T18:45:06.317Z,101699.22
2023-02-21T18:47:34.668Z,101696.41
2023-02-21T18:50:02.678Z,101687.53
2023-02-21T18:52:30.716Z,101688.50
2023-02-21T18:55:03.535Z,101682.13
2023-02-21T18:57:32.085Z,101679.53
2023-02-21T19:00:00.201Z,101676.81
2023-02-21T19:02:29.336Z,101675.81
2023-02-21T19:04:57.228Z,101682.13
2023-02-21T19:07:27.427Z,101669.56
2023-02-21T19:09:55.374Z,101675.75
2023-02-21T19:12:23.093Z,101675.75
2023-02-21T19:14:53.699Z,101673.78
2023-02-21T19:17:21.497Z,101681.03
2023-02-21T19:19:50.669Z,101681.88
2023-02-21T19:22:18.476Z,101671.94
2023-02-21T19:24:46.349Z,101682.88
2023-02-21T19:27:15.211Z,101680.50
2023-02-21T19:29:43.758Z,101680.59
2023-02-21T19:32:11.615Z,101666.19
2023-02-21T19:34:39.482Z,101665.34
2023-02-21T19:37:09.496Z,101675.28
2023-02-21T19:39:37.330Z,101669.03
2023-02-21T19:42:07.071Z,101669.22
2023-02-21T19:44:34.878Z,101667.41
2023-02-21T19:47:02.773Z,101667.41
2023-02-21T19:49:30.767Z,101663.81
2023-02-21T19:52:00.325Z,101664.88
2023-02-21T19:54:30.102Z,101664.03
2023-02-21T19:56:59.862Z,101659.69
2023-02-21T19:59:29.365Z,101661.53
2023-02-21T20:02:03.581Z,101662.41
2023-02-21T20:04:31.555Z,101662.50
2023-02-21T20:06:59.504Z,101663.38
2023-02-21T20:09:30.124Z,101652.66
2023-02-21T20:11:59.430Z,101658.16
2023-02-21T20:14:30.232Z,101660.78
2023-02-21T20:16:58.200Z,101656.53
2023-02-21T20:19:27.581Z,101648.66
2023-02-21T20:21:55.341Z,101661.22
2023-02-21T20:24:23.283Z,101656.00
2023-02-21T20:26:52.341Z,101661.50
2023-02-21T20:29:23.457Z,101650.59
2023-02-21T20:31:51.516Z,101659.47
2023-02-21T20:34:19.897Z,101662.25
2023-02-21T20:36:48.227Z,101657.84
2023-02-21T20:39:26.224Z,101665.06
2023-02-21T20:41:56.439Z,101662.47
2023-02-21T20:44:26.595Z,101669.63
2023-02-21T20:46:54.713Z,101674.91
2023-02-21T20:49:22.612Z,101666.81
2023-02-21T20:51:50.464Z,101664.09
2023-02-21T20:54:21.859Z,101665.06
2023-02-21T20:56:51.405Z,101659.78
2023-02-21T20:59:21.130Z,101659.78
2023-02-21T21:01:50.730Z,101659.78
2023-02-21T21:04:20.407Z,101653.47
2023-02-21T21:06:48.960Z,101655.22
2023-02-21T21:09:18.030Z,101654.47
2023-02-21T21:11:46.635Z,101652.75
2023-02-21T21:14:16.295Z,101649.16
2023-02-21T21:16:47.366Z,101652.09
2023-02-21T21:19:16.487Z,101644.09
2023-02-21T21:21:44.753Z,101649.56
2023-02-21T21:24:12.651Z,101642.41
2023-02-21T21:26:47.301Z,101640.59
2023-02-21T21:29:15.617Z,101636.28
2023-02-21T21:31:47.759Z,101629.03
2023-02-21T21:34:17.772Z,101629.31
2023-02-21T21:36:46.391Z,101631.38
2023-02-21T21:39:15.067Z,101630.63
2023-02-21T21:41:46.530Z,101620.78
2023-02-21T21:44:14.432Z,101620.00
2023-02-21T21:46:46.812Z,101624.56
2023-02-21T21:49:16.799Z,101618.59
2023-02-21T21:51:45.329Z,101613.28
2023-02-21T21:54:13.215Z,101604.31
2023-02-21T21:56:41.226Z,101601.81
2023-02-21T21:59:09.991Z,101594.78
2023-02-21T22:01:41.017Z,101589.47
2023-02-21T22:04:10.731Z,101584.94
2023-02-21T22:06:40.248Z,101575.97
2023-02-21T22:09:09.501Z,101580.59
2023-02-21T22:11:37.558Z,101585.34
2023-02-21T22:14:05.365Z,101580.28
2023-02-21T22:16:38.689Z,101584.78
2023-02-21T22:19:06.554Z,101586.53
2023-02-21T22:21:36.820Z,101579.31
2023-02-21T22:24:07.426Z,101571.09
2023-02-21T22:26:35.198Z,101573.03
2023-02-21T22:29:05.960Z,101564.16
2023-02-21T22:31:34.253Z,101558.00
2023-02-21T22:34:02.295Z,101553.75
2023-02-21T22:36:31.120Z,101552.91
2023-02-21T22:39:01.656Z,101548.56
2023-02-21T22:41:32.388Z,101545.09
2023-02-21T22:44:00.678Z,101532.78
2023-02-21T22:46:30.119Z,101533.75
2023-02-21T22:48:58.867Z,101539.34
2023-02-21T22:51:28.882Z,101537.03
2023-02-21T22:53:58.773Z,101524.72
2023-02-21T22:56:28.984Z,101528.63
2023-02-21T22:58:59.824Z,101521.66
2023-02-21T23:01:28.630Z,101522.53
2023-02-21T23:04:10.401Z,101521.66
2023-02-21T23:06:38.543Z,101518.22
2023-02-21T23:09:13.011Z,101523.63
2023-02-21T23:11:42.267Z,101513.66
2023-02-21T23:14:14.092Z,101508.56
2023-02-21T23:16:42.148Z,101508.00
2023-02-21T23:19:10.984Z,101508.22
2023-02-21T23:21:45.754Z,101507.66
2023-02-21T23:24:14.514Z,101508.84
2023-02-21T23:26:45.026Z,101504.50
2023-02-21T23:29:15.259Z,101507.31
2023-02-21T23:31:43.140Z,101501.13
2023-02-21T23:34:12.424Z,101511.16
2023-02-21T23:36:40.606Z,101508.47
2023-02-21T23:39:09.572Z,101515.41
2023-02-21T23:41:40.509Z,101517.03
2023-02-21T23:44:10.898Z,101510.75
2023-02-21T23:46:42.470Z,101512.59
2023-02-21T23:49:15.352Z,101511.72
2023-02-21T23:51:44.929Z,101515.28
2023-02-21T23:54:15.144Z,101519.91
2023-02-21T23:56:47.034Z,101504.91
2023-02-21T23:59:16.129Z,101511.25
